Verona, Ohio
Current Conditions -  °F | °C
As of 2:56 AM on Thursday 18 Dec 2014 (Local Time) from KDAY Reporting Station
Overcast Overcast  
Wind Chill: 19°   Ceiling: 2300
Heat Index: 27°   Visibility: 10mi
Dew Point: 19°   Wind: 8mph
Humidity: 72%   Direction: 290°WNW
Pressure: 30.26"   Gusts: NA
Location:  39.9°N, 84.49°W
Report Text: KDAY 180756Z 29007KT 10SM OVC023 M03/M07 A3026 RMK AO2 SLP260 T10281072
Loading
Personal Weather Stations






























Interactive Weather Map New forecast layout! Learn more

10-Day Weather Forecast

Advertisements
Track Severe Weather on mobile